createdAt,value
2023-05-14T00:01:33.463Z,101703.40
2023-05-14T00:04:01.384Z,101701.60
2023-05-14T00:06:29.541Z,101702.20
2023-05-14T00:08:57.573Z,101700.00
2023-05-14T00:11:25.424Z,101696.00
2023-05-14T00:13:53.370Z,101698.40
2023-05-14T00:16:21.242Z,101695.20
2023-05-14T00:18:49.214Z,101692.00
2023-05-14T00:21:17.403Z,101695.40
2023-05-14T00:23:45.555Z,101697.20
2023-05-14T00:26:13.720Z,101699.20
2023-05-14T00:28:41.546Z,101696.60
2023-05-14T00:31:09.364Z,101696.20
2023-05-14T00:33:37.272Z,101692.20
2023-05-14T00:36:05.739Z,101693.20
2023-05-14T00:38:33.672Z,101693.60
2023-05-14T00:41:01.499Z,101696.00
2023-05-14T00:43:29.416Z,101700.60
2023-05-14T00:45:57.574Z,101698.20
2023-05-14T00:48:26.239Z,101699.40
2023-05-14T00:50:54.782Z,101697.80
2023-05-14T00:53:22.825Z,101696.40
2023-05-14T00:55:51.025Z,101696.40
2023-05-14T00:58:20.026Z,101692.00
2023-05-14T01:00:48.507Z,101690.20
2023-05-14T01:03:16.642Z,101682.80
2023-05-14T01:06:08.583Z,101685.80
2023-05-14T01:09:22.977Z,101683.00
2023-05-14T01:12:17.457Z,101684.00
2023-05-14T01:15:00.883Z,101681.20
2023-05-14T01:17:34.005Z,101680.20
2023-05-14T01:20:03.665Z,101682.20
2023-05-14T01:22:31.662Z,101682.40
2023-05-14T01:24:59.415Z,101681.00
2023-05-14T01:27:42.157Z,101680.20
2023-05-14T01:30:37.528Z,101681.20
2023-05-14T01:33:14.345Z,101684.20
2023-05-14T01:35:44.596Z,101682.20
2023-05-14T01:38:17.230Z,101680.20
2023-05-14T01:40:47.073Z,101678.40
2023-05-14T01:43:17.028Z,101675.60
2023-05-14T01:45:45.054Z,101673.20
2023-05-14T01:48:12.995Z,101668.80
2023-05-14T01:50:41.218Z,101673.20
2023-05-14T01:53:08.987Z,101673.60
2023-05-14T01:55:36.861Z,101673.20
2023-05-14T01:58:04.711Z,101675.00
2023-05-14T02:00:32.508Z,101673.60
2023-05-14T02:03:00.577Z,101670.60
2023-05-14T02:05:28.537Z,101673.40
2023-05-14T02:07:56.318Z,101674.40
2023-05-14T02:10:24.294Z,101669.00
2023-05-14T02:12:52.359Z,101672.20
2023-05-14T02:15:20.168Z,101667.40
2023-05-14T02:17:48.055Z,101669.40
2023-05-14T02:20:16.138Z,101672.40
2023-05-14T02:22:45.807Z,101669.80
2023-05-14T02:25:13.641Z,101672.00
2023-05-14T02:27:41.407Z,101670.60
2023-05-14T02:30:10.775Z,101666.40
2023-05-14T02:32:39.010Z,101660.40
2023-05-14T02:35:09.254Z,101668.20
2023-05-14T02:37:37.001Z,101665.80
2023-05-14T02:40:05.444Z,101664.00
2023-05-14T02:42:33.263Z,101668.20
2023-05-14T02:45:01.245Z,101667.60
2023-05-14T02:47:29.018Z,101669.00
2023-05-14T02:49:56.880Z,101668.60
2023-05-14T02:52:24.670Z,101659.20
2023-05-14T02:54:52.376Z,101664.20
2023-05-14T02:57:21.356Z,101657.20
2023-05-14T02:59:49.235Z,101650.20
2023-05-14T03:02:17.661Z,101649.00
2023-05-14T03:04:46.908Z,101653.20
2023-05-14T03:07:14.641Z,101647.20
2023-05-14T03:09:42.382Z,101653.40
2023-05-14T03:12:10.220Z,101650.80
2023-05-14T03:14:38.004Z,101648.20
2023-05-14T03:17:06.142Z,101644.20
2023-05-14T03:19:33.904Z,101639.40
2023-05-14T03:22:01.864Z,101638.80
2023-05-14T03:24:29.710Z,101635.20
2023-05-14T03:26:57.488Z,101635.60
2023-05-14T03:29:25.221Z,101639.00
2023-05-14T03:31:54.452Z,101640.60
2023-05-14T03:34:22.392Z,101641.20
2023-05-14T03:36:50.491Z,101644.40
2023-05-14T03:39:20.014Z,101639.40
2023-05-14T03:41:48.547Z,101639.40
2023-05-14T03:44:16.625Z,101632.60
2023-05-14T03:46:44.550Z,101629.60
2023-05-14T03:49:12.350Z,101628.00
2023-05-14T03:51:40.966Z,101624.80
2023-05-14T03:54:09.667Z,101622.80
2023-05-14T03:56:37.487Z,101621.80
2023-05-14T03:59:05.401Z,101610.20
2023-05-14T04:01:35.577Z,101611.20
2023-05-14T04:04:03.656Z,101609.80
2023-05-14T04:06:34.048Z,101606.80
2023-05-14T04:09:02.513Z,101603.40
2023-05-14T04:11:30.384Z,101605.60
2023-05-14T04:13:58.162Z,101603.20
2023-05-14T04:16:26.078Z,101603.00
2023-05-14T04:18:53.999Z,101597.80
2023-05-14T04:21:21.806Z,101596.40
2023-05-14T04:23:50.919Z,101596.60
2023-05-14T04:26:18.701Z,101597.00
2023-05-14T04:28:46.431Z,101590.80
2023-05-14T04:31:15.681Z,101590.80
2023-05-14T04:33:43.471Z,101589.00
2023-05-14T04:36:11.312Z,101588.60
2023-05-14T04:38:39.073Z,101586.60
2023-05-14T04:41:07.305Z,101587.20
2023-05-14T04:43:35.118Z,101585.60
2023-05-14T04:46:03.318Z,101587.80
2023-05-14T04:48:31.300Z,101582.80
2023-05-14T04:50:59.165Z,101586.00
2023-05-14T04:53:27.123Z,101578.00
2023-05-14T04:55:55.328Z,101580.00
2023-05-14T04:58:24.253Z,101580.40
2023-05-14T05:00:52.157Z,101578.60
2023-05-14T05:03:20.205Z,101575.60
2023-05-14T05:05:48.163Z,101576.60
2023-05-14T05:08:16.028Z,101570.60
2023-05-14T05:10:43.808Z,101569.40
2023-05-14T05:13:11.745Z,101570.40
2023-05-14T05:15:39.570Z,101566.20
2023-05-14T05:18:07.465Z,101565.00
2023-05-14T05:20:35.380Z,101559.80
2023-05-14T05:23:03.225Z,101555.80
2023-05-14T05:25:32.513Z,101551.40
2023-05-14T05:28:00.400Z,101548.40
2023-05-14T05:30:28.410Z,101547.60
2023-05-14T05:32:57.779Z,101550.20
2023-05-14T05:35:25.852Z,101552.80
2023-05-14T05:37:53.648Z,101553.40
2023-05-14T05:40:21.720Z,101550.00
2023-05-14T05:42:49.743Z,101550.00
2023-05-14T05:45:17.512Z,101545.40
2023-05-14T05:47:45.941Z,101550.60
2023-05-14T05:50:15.070Z,101548.60
2023-05-14T05:52:43.140Z,101555.00
2023-05-14T05:55:11.197Z,101553.00
2023-05-14T05:57:38.975Z,101549.80
2023-05-14T06:00:13.275Z,101551.60
2023-05-14T06:02:42.015Z,101545.20
2023-05-14T06:05:14.360Z,101551.40
2023-05-14T06:07:42.540Z,101552.20
2023-05-14T06:10:11.166Z,101555.80
2023-05-14T06:12:39.152Z,101553.40
2023-05-14T06:15:07.756Z,101558.20
2023-05-14T06:17:35.526Z,101561.80
2023-05-14T06:20:05.667Z,101558.00
2023-05-14T06:22:34.209Z,101559.80
2023-05-14T06:25:02.193Z,101553.80
2023-05-14T06:27:30.540Z,101550.20
2023-05-14T06:29:58.433Z,101554.80
2023-05-14T06:32:26.290Z,101555.80
2023-05-14T06:34:54.102Z,101552.00
2023-05-14T06:37:21.908Z,101557.40
2023-05-14T06:39:52.654Z,101554.60
2023-05-14T06:42:20.556Z,101553.80
2023-05-14T06:44:48.436Z,101557.00
2023-05-14T06:47:16.254Z,101555.20
2023-05-14T06:49:44.214Z,101551.40
2023-05-14T06:52:12.029Z,101549.20
2023-05-14T06:54:39.766Z,101544.20
2023-05-14T06:57:07.574Z,101548.00
2023-05-14T06:59:36.059Z,101547.60
2023-05-14T07:02:03.907Z,101549.40
2023-05-14T07:04:32.170Z,101548.60
2023-05-14T07:06:59.963Z,101549.60
2023-05-14T07:09:27.825Z,101549.40
2023-05-14T07:11:55.644Z,101536.20
2023-05-14T07:14:23.440Z,101535.60
2023-05-14T07:16:51.302Z,101536.20
2023-05-14T07:19:19.128Z,101543.00
2023-05-14T07:21:46.968Z,101540.40
2023-05-14T07:24:14.698Z,101542.20
2023-05-14T07:26:42.531Z,101544.60
2023-05-14T07:29:10.455Z,101542.00
2023-05-14T07:31:38.330Z,101537.80
2023-05-14T07:34:06.295Z,101537.40
2023-05-14T07:36:34.413Z,101531.60
2023-05-14T07:39:02.341Z,101525.80
2023-05-14T07:41:30.109Z,101528.60
2023-05-14T07:43:58.552Z,101527.60
2023-05-14T07:46:26.816Z,101522.60
2023-05-14T07:48:54.672Z,101522.20
2023-05-14T07:51:23.198Z,101515.40
2023-05-14T07:53:51.201Z,101515.80
2023-05-14T07:56:19.084Z,101512.60
2023-05-14T07:58:47.077Z,101514.20
2023-05-14T08:01:15.165Z,101514.20
2023-05-14T08:03:43.147Z,101511.00
2023-05-14T08:06:11.925Z,101508.40
2023-05-14T08:08:39.947Z,101512.40
2023-05-14T08:11:07.823Z,101502.20
2023-05-14T08:13:35.770Z,101504.60
2023-05-14T08:16:03.799Z,101504.00
2023-05-14T08:18:31.792Z,101500.00
2023-05-14T08:21:01.036Z,101501.20
2023-05-14T08:23:30.155Z,101503.20
2023-05-14T08:25:59.393Z,101501.80
2023-05-14T08:28:27.187Z,101500.80
2023-05-14T08:30:55.120Z,101503.00
2023-05-14T08:33:23.466Z,101504.00
2023-05-14T08:35:54.867Z,101502.60
2023-05-14T08:38:22.726Z,101504.20
2023-05-14T08:40:58.849Z,101496.20
2023-05-14T08:43:56.973Z,101496.00
2023-05-14T08:46:26.828Z,101492.00
2023-05-14T08:49:04.347Z,101487.80
2023-05-14T08:51:36.761Z,101477.80
2023-05-14T08:54:06.004Z,101474.60
2023-05-14T08:56:33.926Z,101479.00
2023-05-14T08:59:01.716Z,101475.80
2023-05-14T09:01:30.064Z,101469.00
2023-05-14T09:04:01.607Z,101467.20
2023-05-14T09:06:30.917Z,101466.60
2023-05-14T09:08:58.832Z,101465.60
2023-05-14T09:11:26.745Z,101467.80
2023-05-14T09:13:54.578Z,101464.20
2023-05-14T09:16:25.832Z,101459.20
2023-05-14T09:18:55.267Z,101452.40
2023-05-14T09:21:23.644Z,101453.40
2023-05-14T09:23:57.041Z,101452.00
2023-05-14T09:26:26.646Z,101448.60
2023-05-14T09:28:56.621Z,101447.00
2023-05-14T09:31:24.722Z,101449.00
2023-05-14T09:33:53.268Z,101448.00
2023-05-14T09:36:21.336Z,101445.40
2023-05-14T09:38:49.136Z,101443.00
2023-05-14T09:41:17.049Z,101445.60
2023-05-14T09:43:45.099Z,101438.20
2023-05-14T09:46:13.304Z,101433.00
2023-05-14T09:48:41.257Z,101433.20
2023-05-14T09:51:11.353Z,101427.60
2023-05-14T09:53:41.384Z,101423.00
2023-05-14T09:56:09.364Z,101417.60
2023-05-14T09:58:37.311Z,101410.60
2023-05-14T10:01:06.877Z,101409.80
2023-05-14T10:03:36.121Z,101414.40
2023-05-14T10:06:06.711Z,101409.00
2023-05-14T10:08:36.479Z,101401.60
2023-05-14T10:11:17.907Z,101401.60
2023-05-14T10:13:58.196Z,101396.60
2023-05-14T10:16:34.179Z,101396.40
2023-05-14T10:19:10.940Z,101393.40
2023-05-14T10:21:49.866Z,101393.60
2023-05-14T10:24:20.212Z,101392.00
2023-05-14T10:26:49.152Z,101385.20
2023-05-14T10:29:16.952Z,101383.80
2023-05-14T10:31:55.591Z,101383.20
2023-05-14T10:34:46.499Z,101386.20
2023-05-14T10:37:26.058Z,101383.80
2023-05-14T10:39:58.877Z,101386.60
2023-05-14T10:42:29.153Z,101391.00
2023-05-14T10:45:01.949Z,101379.00
2023-05-14T10:47:29.995Z,101380.60
2023-05-14T10:50:01.920Z,101381.20
2023-05-14T10:52:31.126Z,101379.40
2023-05-14T10:55:07.849Z,101380.80
2023-05-14T10:57:40.062Z,101382.80
2023-05-14T11:00:09.278Z,101377.80
2023-05-14T11:02:40.599Z,101380.20
2023-05-14T11:05:15.732Z,101370.40
2023-05-14T11:07:47.298Z,101375.80
2023-05-14T11:10:18.627Z,101376.60
2023-05-14T11:12:50.081Z,101382.40
2023-05-14T11:15:23.463Z,101388.00
2023-05-14T11:17:53.627Z,101391.80
2023-05-14T11:20:21.971Z,101385.40
2023-05-14T11:22:51.857Z,101388.40
2023-05-14T11:25:20.624Z,101385.60
2023-05-14T11:27:50.750Z,101371.40
2023-05-14T11:30:20.723Z,101367.60
2023-05-14T11:32:50.661Z,101372.60
2023-05-14T11:35:18.961Z,101369.40
2023-05-14T11:37:54.796Z,101357.20
2023-05-14T11:40:22.951Z,101351.80
2023-05-14T11:42:54.001Z,101350.00
2023-05-14T11:45:27.522Z,101341.60
2023-05-14T11:47:56.187Z,101337.40
2023-05-14T11:50:24.295Z,101335.20
2023-05-14T11:52:57.494Z,101329.60
2023-05-14T11:55:25.596Z,101337.20
2023-05-14T11:57:54.474Z,101331.40
2023-05-14T12:00:24.158Z,101326.40
2023-05-14T12:02:52.569Z,101334.20
2023-05-14T12:05:20.840Z,101336.20
2023-05-14T12:07:48.962Z,101332.80
2023-05-14T12:10:16.789Z,101329.40
2023-05-14T12:12:47.828Z,101322.00
2023-05-14T12:15:21.883Z,101322.60
2023-05-14T12:17:52.077Z,101341.80
2023-05-14T12:20:20.230Z,101344.20
2023-05-14T12:22:48.137Z,101327.60
2023-05-14T12:25:16.054Z,101323.20
2023-05-14T12:27:45.625Z,101321.20
2023-05-14T12:32:46.178Z,101304.20
2023-05-14T12:35:17.041Z,101298.00
2023-05-14T12:37:45.024Z,101288.20
2023-05-14T12:40:13.274Z,101283.60
2023-05-14T12:42:41.157Z,101288.20
2023-05-14T12:45:09.338Z,101290.60
2023-05-14T12:47:37.816Z,101287.20
2023-05-14T12:50:07.837Z,101285.00
2023-05-14T12:52:39.139Z,101287.20
2023-05-14T12:55:09.765Z,101288.40
2023-05-14T12:57:39.707Z,101283.20
2023-05-14T13:00:14.103Z,101285.40
2023-05-14T13:02:43.664Z,101283.20
2023-05-14T13:05:12.959Z,101276.20
2023-05-14T13:07:41.237Z,101277.60
2023-05-14T13:10:10.063Z,101276.20
2023-05-14T13:12:39.011Z,101266.20
2023-05-14T13:15:07.926Z,101263.20
2023-05-14T13:17:37.021Z,101268.60
2023-05-14T13:20:05.501Z,101268.60
2023-05-14T13:22:33.728Z,101277.80
2023-05-14T13:25:01.701Z,101284.60
2023-05-14T13:27:30.537Z,101282.60
2023-05-14T13:29:58.633Z,101274.00
2023-05-14T13:32:26.528Z,101274.40
2023-05-14T13:34:54.338Z,101262.40
2023-05-14T13:37:22.422Z,101268.80
2023-05-14T13:39:51.432Z,101268.60
2023-05-14T13:42:19.584Z,101263.80
2023-05-14T13:44:47.471Z,101267.80
2023-05-14T13:47:15.383Z,101254.80
2023-05-14T13:49:43.279Z,101257.40
2023-05-14T13:52:11.116Z,101244.00
2023-05-14T13:54:38.885Z,101233.40
2023-05-14T13:57:06.985Z,101227.80
2023-05-14T13:59:35.761Z,101221.00
2023-05-14T14:02:03.810Z,101230.80
2023-05-14T14:04:32.030Z,101230.40
2023-05-14T14:07:00.258Z,101234.20
2023-05-14T14:09:28.069Z,101230.40
2023-05-14T14:11:56.014Z,101227.00
2023-05-14T14:14:23.833Z,101227.40
2023-05-14T14:16:51.710Z,101216.40
2023-05-14T14:19:19.647Z,101215.00
2023-05-14T14:21:47.837Z,101205.20
2023-05-14T14:24:15.693Z,101202.40
2023-05-14T14:26:43.473Z,101196.40
2023-05-14T14:29:11.417Z,101195.60
2023-05-14T14:31:39.381Z,101188.60
2023-05-14T14:34:07.236Z,101182.20
2023-05-14T14:36:35.115Z,101184.20
2023-05-14T14:39:03.157Z,101182.00
2023-05-14T14:41:31.100Z,101177.80
2023-05-14T14:43:59.200Z,101182.40
2023-05-14T14:46:27.190Z,101180.20
2023-05-14T14:48:55.288Z,101178.20
2023-05-14T14:51:23.255Z,101177.40
2023-05-14T14:53:51.114Z,101175.40
2023-05-14T14:56:19.355Z,101171.00
2023-05-14T14:58:47.272Z,101166.00
2023-05-14T15:01:15.244Z,101165.60
2023-05-14T15:03:45.755Z,101164.40
2023-05-14T15:06:13.740Z,101159.60
2023-05-14T15:08:41.990Z,101160.00
2023-05-14T15:11:09.900Z,101156.20
2023-05-14T15:13:37.723Z,101149.60
2023-05-14T15:16:05.752Z,101156.60
2023-05-14T15:18:33.799Z,101150.00
2023-05-14T15:21:01.857Z,101148.20
2023-05-14T15:23:29.730Z,101145.20
2023-05-14T15:25:57.593Z,101137.80
2023-05-14T15:28:25.716Z,101131.20
2023-05-14T15:30:53.580Z,101128.80
2023-05-14T15:33:21.516Z,101126.80
2023-05-14T15:35:49.386Z,101128.20
2023-05-14T15:38:17.237Z,101125.60
2023-05-14T15:40:47.992Z,101126.60
2023-05-14T15:43:15.953Z,101122.40
2023-05-14T15:45:45.837Z,101122.00
2023-05-14T15:48:13.673Z,101117.60
2023-05-14T15:50:42.497Z,101111.80
2023-05-14T15:53:10.398Z,101104.00
2023-05-14T15:55:38.293Z,101104.60
2023-05-14T15:58:06.688Z,101098.60
2023-05-14T16:00:34.641Z,101095.00
2023-05-14T16:03:02.438Z,101091.20
2023-05-14T16:05:30.630Z,101095.40
2023-05-14T16:07:59.084Z,101091.80
2023-05-14T16:10:27.127Z,101089.60
2023-05-14T16:12:55.103Z,101091.80
2023-05-14T16:15:22.851Z,101080.40
2023-05-14T16:17:50.880Z,101073.60
2023-05-14T16:20:18.849Z,101070.40
2023-05-14T16:22:46.918Z,101064.00
2023-05-14T16:25:14.992Z,101057.60
2023-05-14T16:27:43.270Z,101055.40
2023-05-14T16:30:11.725Z,101054.00
2023-05-14T16:32:42.011Z,101054.00
2023-05-14T16:35:10.235Z,101044.00
2023-05-14T16:37:38.105Z,101048.20
2023-05-14T16:40:07.645Z,101053.40
2023-05-14T16:42:35.470Z,101046.60
2023-05-14T16:45:04.200Z,101049.20
2023-05-14T16:47:32.236Z,101047.60
2023-05-14T16:50:00.422Z,101044.60
2023-05-14T16:52:28.312Z,101055.40
2023-05-14T16:54:56.813Z,101058.60
2023-05-14T16:57:26.822Z,101054.80
2023-05-14T16:59:54.783Z,101055.00
2023-05-14T17:02:22.609Z,101049.80
2023-05-14T17:04:50.685Z,101050.00
2023-05-14T17:07:18.826Z,101049.60
2023-05-14T17:09:46.699Z,101045.80
2023-05-14T17:12:14.812Z,101046.80
2023-05-14T17:14:43.008Z,101049.00
2023-05-14T17:17:11.162Z,101047.60
2023-05-14T17:19:39.025Z,101052.00
2023-05-14T17:22:07.606Z,101049.00
2023-05-14T17:24:36.639Z,101047.60
2023-05-14T17:27:07.987Z,101049.40
2023-05-14T17:29:35.826Z,101048.20
2023-05-14T17:32:04.742Z,101049.00
2023-05-14T17:34:32.989Z,101049.20
2023-05-14T17:37:01.206Z,101049.40
2023-05-14T17:39:29.331Z,101046.00
2023-05-14T17:41:57.289Z,101050.80
2023-05-14T17:44:25.232Z,101050.60
2023-05-14T17:46:53.148Z,101051.80
2023-05-14T17:49:20.962Z,101048.00
2023-05-14T17:51:49.049Z,101048.80
2023-05-14T17:54:16.943Z,101046.80
2023-05-14T17:56:45.360Z,101051.20
2023-05-14T17:59:15.855Z,101047.20
2023-05-14T18:01:44.498Z,101046.00
2023-05-14T18:04:12.682Z,101050.00
2023-05-14T18:06:42.500Z,101046.80
2023-05-14T18:09:10.840Z,101042.80
2023-05-14T18:11:38.795Z,101043.20
2023-05-14T18:14:07.167Z,101044.80
2023-05-14T18:16:37.259Z,101049.60
2023-05-14T18:19:05.786Z,101047.60
2023-05-14T18:21:33.947Z,101047.40
2023-05-14T18:24:04.703Z,101046.60
2023-05-14T18:26:35.633Z,101050.60
2023-05-14T18:29:03.912Z,101050.80
2023-05-14T18:31:32.011Z,101048.40
2023-05-14T18:34:02.970Z,101049.60
2023-05-14T18:36:30.991Z,101046.80
2023-05-14T18:38:59.394Z,101044.00
2023-05-14T18:41:27.797Z,101047.00
2023-05-14T18:43:56.071Z,101050.20
2023-05-14T18:46:27.340Z,101057.20
2023-05-14T18:48:58.827Z,101057.60
2023-05-14T18:51:27.044Z,101054.80
2023-05-14T18:53:54.895Z,101047.20
2023-05-14T18:56:24.023Z,101046.20
2023-05-14T18:58:53.828Z,101047.20
2023-05-14T19:01:24.698Z,101044.40
2023-05-14T19:03:53.510Z,101047.60
2023-05-14T19:06:21.434Z,101042.20
2023-05-14T19:08:49.367Z,101042.60
2023-05-14T19:11:18.252Z,101044.20
2023-05-14T19:13:47.049Z,101044.00
2023-05-14T19:16:15.528Z,101038.80
2023-05-14T19:18:44.273Z,101038.40
2023-05-14T19:21:12.291Z,101038.00
2023-05-14T19:23:40.361Z,101039.40
2023-05-14T19:26:08.749Z,101033.20
2023-05-14T19:28:39.104Z,101033.20
2023-05-14T19:31:07.448Z,101035.00
2023-05-14T19:33:35.369Z,101029.40
2023-05-14T19:36:05.071Z,101029.60
2023-05-14T19:38:33.081Z,101032.60
2023-05-14T19:41:00.913Z,101027.80
2023-05-14T19:43:28.825Z,101019.80
2023-05-14T19:45:57.488Z,101016.00
2023-05-14T19:48:25.988Z,101022.00
2023-05-14T19:50:53.942Z,101020.80
2023-05-14T19:53:21.825Z,101018.20
2023-05-14T19:55:50.115Z,101012.60
2023-05-14T19:58:18.150Z,101011.60
2023-05-14T20:00:47.441Z,101017.80
2023-05-14T20:03:15.979Z,101016.40
2023-05-14T20:05:49.150Z,101016.80
2023-05-14T20:08:19.230Z,101013.20
2023-05-14T20:10:48.770Z,101007.00
2023-05-14T20:13:16.743Z,101003.20
2023-05-14T20:15:45.444Z,101002.00
2023-05-14T20:18:13.569Z,101000.00
2023-05-14T20:20:42.861Z,101000.20
2023-05-14T20:23:10.904Z,100998.60
2023-05-14T20:25:39.097Z,100997.80
2023-05-14T20:28:07.240Z,100999.20
2023-05-14T20:30:35.359Z,101004.00
2023-05-14T20:33:04.192Z,100998.20
2023-05-14T20:35:33.144Z,100999.80
2023-05-14T20:38:02.282Z,100995.00
2023-05-14T20:40:31.199Z,100996.60
2023-05-14T20:42:59.108Z,100991.20
2023-05-14T20:45:27.378Z,100993.40
2023-05-14T20:47:56.109Z,100992.00
2023-05-14T20:50:27.114Z,100989.80
2023-05-14T20:52:55.384Z,100998.20
2023-05-14T20:55:23.515Z,100989.20
2023-05-14T20:57:51.721Z,100985.80
2023-05-14T21:00:20.025Z,100984.20
2023-05-14T21:02:49.432Z,100978.80
2023-05-14T21:05:18.081Z,100980.20
2023-05-14T21:07:46.138Z,100978.60
2023-05-14T21:10:14.076Z,100979.20
2023-05-14T21:12:42.816Z,100972.00
2023-05-14T21:15:12.435Z,100963.60
2023-05-14T21:17:40.801Z,100967.20
2023-05-14T21:20:09.325Z,100968.40
2023-05-14T21:22:37.079Z,100962.40
2023-05-14T21:25:05.590Z,100956.60
2023-05-14T21:27:33.773Z,100962.40
2023-05-14T21:30:01.600Z,100955.80
2023-05-14T21:32:29.594Z,100957.40
2023-05-14T21:34:57.650Z,100957.40
2023-05-14T21:37:25.557Z,100953.00
2023-05-14T21:39:53.321Z,100951.40
2023-05-14T21:42:21.638Z,100949.40
2023-05-14T21:44:49.451Z,100946.80
2023-05-14T21:47:17.478Z,100943.80
2023-05-14T21:49:45.440Z,100935.00
2023-05-14T21:52:13.408Z,100935.20
2023-05-14T21:54:43.698Z,100930.60
2023-05-14T21:57:11.566Z,100932.60
2023-05-14T21:59:39.406Z,100933.40
2023-05-14T22:02:08.043Z,100934.20
2023-05-14T22:04:36.442Z,100929.20
2023-05-14T22:07:04.867Z,100930.20
2023-05-14T22:09:32.752Z,100923.40
2023-05-14T22:12:00.644Z,100923.60
2023-05-14T22:14:28.612Z,100919.60
2023-05-14T22:16:56.802Z,100920.20
2023-05-14T22:19:25.992Z,100910.40
2023-05-14T22:21:54.429Z,100909.80
2023-05-14T22:24:22.530Z,100907.40
2023-05-14T22:26:50.816Z,100910.40
2023-05-14T22:29:18.684Z,100911.60
2023-05-14T22:31:46.531Z,100916.20
2023-05-14T22:34:14.531Z,100916.00
2023-05-14T22:36:42.515Z,100911.40
2023-05-14T22:39:11.400Z,100907.00
2023-05-14T22:41:41.213Z,100911.00
2023-05-14T22:44:09.046Z,100914.40
2023-05-14T22:46:36.974Z,100908.80
2023-05-14T22:49:04.750Z,100912.40
2023-05-14T22:51:32.880Z,100903.00
2023-05-14T22:54:00.689Z,100896.40
2023-05-14T22:56:28.576Z,100896.60
2023-05-14T22:59:00.363Z,100892.60
2023-05-14T23:01:30.228Z,100889.80
2023-05-14T23:03:58.099Z,100884.40
2023-05-14T23:06:26.260Z,100890.20
2023-05-14T23:08:54.168Z,100880.60
2023-05-14T23:11:22.637Z,100884.80
2023-05-14T23:13:50.821Z,100877.40
2023-05-14T23:16:18.958Z,100874.00
2023-05-14T23:18:47.015Z,100868.40
2023-05-14T23:21:15.264Z,100863.60
2023-05-14T23:23:43.152Z,100861.40
2023-05-14T23:26:11.096Z,100857.80
2023-05-14T23:28:38.853Z,100851.40
2023-05-14T23:31:06.676Z,100853.00
2023-05-14T23:33:34.483Z,100850.20
2023-05-14T23:36:03.722Z,100842.60
2023-05-14T23:38:31.979Z,100842.00
2023-05-14T23:40:59.790Z,100838.20
2023-05-14T23:43:27.607Z,100835.60
2023-05-14T23:45:55.899Z,100833.00
2023-05-14T23:48:24.155Z,100829.00
2023-05-14T23:50:51.961Z,100826.60
2023-05-14T23:53:19.748Z,100816.40
2023-05-14T23:55:47.642Z,100809.20
2023-05-14T23:58:15.508Z,100808.00
